Time;durP1;ratioP1;P1;durP2;ratioP2;P2;SDS_P1;SDS_P2;PMS_P1;PMS_P2;Temp;Humidity;BMP_temperature;BMP_pressure;BME280_temperature;BME280_humidity;BME280_pressure;Samples;Min_cycle;Max_cycle;Signal;HPM_P1;HPM_P2
2022/08/07 00:01:44;;;;;;;4.83;2.90;;;11.90;99.90;;;;;;5015674;28;20499;-79
2022/08/07 00:04:10;;;;;;;4.00;2.60;;;11.80;99.90;;;;;;5015374;28;20235;-81
2022/08/07 00:06:37;;;;;;;3.27;2.40;;;11.80;99.90;;;;;;5015581;28;20415;-83
2022/08/07 00:09:03;;;;;;;3.00;1.70;;;11.90;99.90;;;;;;5015694;28;20212;-82
2022/08/07 00:11:29;;;;;;;3.43;2.40;;;12.00;99.90;;;;;;5015600;28;20420;-79
2022/08/07 00:13:55;;;;;;;3.37;2.60;;;11.90;99.90;;;;;;5015585;28;20426;-79
2022/08/07 00:16:20;;;;;;;4.23;2.37;;;11.90;99.90;;;;;;5015433;28;20412;-80
2022/08/07 00:18:46;;;;;;;3.27;2.30;;;11.80;99.90;;;;;;5014128;28;20591;-80
2022/08/07 00:21:11;;;;;;;4.13;2.10;;;11.80;99.90;;;;;;5015466;28;20173;-83
2022/08/07 00:23:39;;;;;;;5.17;3.27;;;11.80;99.90;;;;;;5015366;28;20539;-79
2022/08/07 00:26:06;;;;;;;3.80;2.20;;;11.80;99.90;;;;;;5015376;28;20625;-79
2022/08/07 00:28:32;;;;;;;3.70;2.20;;;11.70;99.90;;;;;;5015286;28;20926;-79
2022/08/07 00:30:58;;;;;;;4.70;2.63;;;11.60;99.90;;;;;;4997426;28;20419;-79
2022/08/07 00:33:27;;;;;;;5.40;3.10;;;11.60;99.90;;;;;;5015147;28;20422;-79
2022/08/07 00:35:53;;;;;;;3.70;2.57;;;11.60;99.90;;;;;;5014771;28;20185;-81
2022/08/07 00:38:19;;;;;;;4.07;1.90;;;11.50;99.90;;;;;;5015145;28;20424;-80
2022/08/07 00:40:44;;;;;;;3.10;1.57;;;11.50;99.90;;;;;;5014996;28;20418;-79
2022/08/07 00:43:11;;;;;;;4.93;2.60;;;11.50;99.90;;;;;;5014836;28;20227;-81
2022/08/07 00:45:39;;;;;;;5.10;3.00;;;11.40;99.90;;;;;;5014909;28;20625;-81
2022/08/07 00:48:05;;;;;;;7.00;2.40;;;11.30;99.90;;;;;;5014886;28;20750;-82
2022/08/07 00:50:31;;;;;;;4.23;2.27;;;11.30;99.90;;;;;;5014391;28;20533;-82
2022/08/07 00:52:57;;;;;;;3.03;1.73;;;11.40;99.90;;;;;;5014707;28;20428;-82
2022/08/07 00:55:23;;;;;;;5.00;1.90;;;11.30;99.90;;;;;;5014862;28;20479;-79
2022/08/07 00:57:50;;;;;;;6.57;2.83;;;11.30;99.90;;;;;;5014640;28;20172;-80
2022/08/07 01:00:16;;;;;;;4.80;2.03;;;11.20;99.90;;;;;;5014702;28;20445;-79
2022/08/07 01:02:42;;;;;;;4.60;2.47;;;11.20;99.90;;;;;;5014469;28;20508;-79
2022/08/07 01:05:09;;;;;;;4.27;2.57;;;11.20;99.90;;;;;;5014215;28;20423;-79
2022/08/07 01:07:34;;;;;;;5.63;2.80;;;11.20;99.90;;;;;;5014389;28;20225;-79
2022/08/07 01:10:00;;;;;;;4.00;1.93;;;11.20;99.90;;;;;;5014398;28;20880;-79
2022/08/07 01:12:26;;;;;;;6.87;2.77;;;11.20;99.90;;;;;;5014424;28;20193;-81
2022/08/07 01:14:52;;;;;;;5.70;2.20;;;11.10;99.90;;;;;;5014173;28;20267;-79
2022/08/07 01:17:17;;;;;;;6.37;2.43;;;11.10;99.90;;;;;;5014378;28;20459;-79
2022/08/07 01:19:43;;;;;;;5.33;3.23;;;11.10;99.90;;;;;;5013994;28;20181;-79
2022/08/07 01:22:09;;;;;;;4.53;2.47;;;11.10;99.90;;;;;;5014158;28;20221;-80
2022/08/07 01:24:36;;;;;;;3.07;1.70;;;11.00;99.90;;;;;;5014146;28;20412;-79
2022/08/07 01:27:02;;;;;;;5.77;3.00;;;11.00;99.90;;;;;;5014065;28;20433;-79
2022/08/07 01:29:29;;;;;;;4.97;2.63;;;11.00;99.90;;;;;;5014083;28;20426;-80
2022/08/07 01:31:54;;;;;;;5.30;3.40;;;10.90;99.90;;;;;;5014016;28;20167;-79
2022/08/07 01:34:20;;;;;;;4.63;1.90;;;10.90;99.90;;;;;;4996151;28;20427;-78
2022/08/07 01:36:47;;;;;;;3.80;2.43;;;10.90;99.90;;;;;;5013854;28;20207;-79
2022/08/07 01:39:13;;;;;;;3.47;1.87;;;10.90;99.90;;;;;;5013947;28;20254;-78
2022/08/07 01:41:39;;;;;;;5.03;2.93;;;10.90;99.90;;;;;;5013714;28;20463;-79
2022/08/07 01:44:05;;;;;;;4.37;2.90;;;11.10;99.90;;;;;;5013561;28;20447;-79
2022/08/07 01:46:31;;;;;;;4.90;2.57;;;11.20;99.90;;;;;;5013143;28;20430;-80
2022/08/07 01:48:57;;;;;;;3.67;2.50;;;11.10;99.90;;;;;;4995877;28;20724;-79
2022/08/07 01:51:24;;;;;;;3.70;2.30;;;11.00;99.90;;;;;;5013517;28;20471;-80
2022/08/07 01:53:56;;;;;;;4.77;2.30;;;10.90;99.90;;;;;;5013699;28;20564;-78
2022/08/07 01:56:26;;;;;;;4.33;2.70;;;11.00;99.90;;;;;;5013635;28;20423;-78
2022/08/07 01:58:59;;;;;;;4.73;2.57;;;10.80;99.90;;;;;;5013688;28;20467;-80
2022/08/07 02:01:38;;;;;;;5.90;4.20;;;10.80;99.90;;;;;;5013444;28;20782;-80
2022/08/07 02:04:12;;;;;;;4.43;2.30;;;10.80;99.90;;;;;;5013142;28;20430;-79
2022/08/07 02:06:40;;;;;;;4.93;3.20;;;10.80;99.90;;;;;;5013253;28;20429;-79
2022/08/07 02:09:09;;;;;;;4.87;2.57;;;10.70;99.90;;;;;;5013361;28;20407;-79
2022/08/07 02:11:38;;;;;;;4.30;2.33;;;10.70;99.90;;;;;;5013371;28;20443;-79
2022/08/07 02:14:06;;;;;;;5.67;2.30;;;10.70;99.90;;;;;;5013139;28;20421;-79
2022/08/07 02:16:34;;;;;;;3.83;2.40;;;10.60;99.90;;;;;;5013196;28;20418;-79
2022/08/07 02:19:12;;;;;;;5.47;2.57;;;10.60;99.90;;;;;;5012876;28;20432;-78
2022/08/07 02:21:39;;;;;;;4.87;2.57;;;10.60;99.90;;;;;;5013241;28;20590;-80
2022/08/07 02:24:06;;;;;;;6.43;3.90;;;10.60;99.90;;;;;;4995683;28;20466;-80
2022/08/07 02:26:34;;;;;;;3.90;2.03;;;10.50;99.90;;;;;;5013039;28;20461;-79
2022/08/07 02:29:05;;;;;;;3.30;1.93;;;10.50;99.90;;;;;;5013134;28;20438;-81
2022/08/07 02:31:31;;;;;;;4.93;2.90;;;10.50;99.90;;;;;;5013142;28;20422;-80
2022/08/07 02:34:00;;;;;;;4.97;2.90;;;10.40;99.90;;;;;;5012738;28;20420;-79
2022/08/07 02:36:27;;;;;;;4.43;2.10;;;10.40;99.90;;;;;;5013043;28;20800;-79
2022/08/07 02:38:55;;;;;;;4.50;2.30;;;10.40;99.90;;;;;;4995404;28;20521;-81
2022/08/07 02:41:22;;;;;;;4.47;2.37;;;10.40;99.90;;;;;;5012415;28;20417;-78
2022/08/07 02:43:49;;;;;;;4.20;3.47;;;10.30;99.90;;;;;;5012926;28;20425;-79
2022/08/07 02:46:18;;;;;;;4.63;2.47;;;10.30;99.90;;;;;;5013009;28;20425;-79
2022/08/07 02:48:43;;;;;;;7.10;2.67;;;10.30;99.90;;;;;;5012478;28;20429;-79
2022/08/07 02:51:16;;;;;;;4.43;2.87;;;10.20;99.90;;;;;;5012817;28;20868;-84
2022/08/07 02:53:44;;;;;;;6.03;3.97;;;10.30;99.90;;;;;;5012906;28;20244;-80
2022/08/07 02:56:13;;;;;;;5.53;3.03;;;10.30;99.90;;;;;;5012932;28;20423;-82
2022/08/07 02:58:41;;;;;;;3.27;1.50;;;10.20;99.90;;;;;;5012704;28;20454;-80
2022/08/07 03:01:09;;;;;;;3.87;1.73;;;10.20;99.90;;;;;;5011241;28;20491;-80
2022/08/07 03:03:36;;;;;;;3.20;1.43;;;10.20;99.90;;;;;;5012445;28;20476;-78
2022/08/07 03:06:03;;;;;;;4.80;2.13;;;10.20;99.90;;;;;;5012783;28;20420;-80
2022/08/07 03:08:28;;;;;;;3.87;2.20;;;10.20;99.90;;;;;;5012810;28;20832;-80
2022/08/07 03:10:55;;;;;;;4.13;2.03;;;10.20;99.90;;;;;;5012564;28;20537;-81
2022/08/07 03:13:20;;;;;;;6.27;2.77;;;10.20;99.90;;;;;;4995126;28;20182;-83
2022/08/07 03:15:49;;;;;;;4.10;2.67;;;10.20;99.90;;;;;;5012695;28;20422;-81
2022/08/07 03:18:15;;;;;;;5.20;2.03;;;10.20;99.90;;;;;;5012515;28;20186;-79
2022/08/07 03:20:41;;;;;;;4.53;3.00;;;10.10;99.90;;;;;;5012564;28;20455;-83
2022/08/07 03:23:08;;;;;;;3.70;1.80;;;10.10;99.90;;;;;;5012557;28;20522;-78
2022/08/07 03:25:37;;;;;;;3.90;2.80;;;10.10;99.90;;;;;;5012574;28;20540;-78
2022/08/07 03:28:03;;;;;;;3.63;1.77;;;10.10;99.90;;;;;;5012606;28;20428;-79
2022/08/07 03:30:31;;;;;;;4.37;2.13;;;10.00;99.90;;;;;;5012468;28;20421;-78
2022/08/07 03:32:59;;;;;;;4.80;3.07;;;10.00;99.90;;;;;;5012546;28;20423;-80
2022/08/07 03:35:26;;;;;;;4.90;2.57;;;10.00;99.90;;;;;;5012118;28;20436;-83
2022/08/07 03:37:58;;;;;;;4.77;2.50;;;10.00;99.90;;;;;;5012530;28;20431;-79
2022/08/07 03:40:24;;;;;;;3.43;2.60;;;10.00;99.90;;;;;;5012530;28;20465;-78
2022/08/07 03:42:51;;;;;;;4.60;2.37;;;10.00;99.90;;;;;;5012324;28;20472;-80
2022/08/07 03:45:18;;;;;;;4.50;2.53;;;10.00;99.90;;;;;;5012380;28;20464;-79
2022/08/07 03:47:44;;;;;;;2.70;1.47;;;10.00;99.90;;;;;;5012365;28;20426;-80
2022/08/07 03:50:09;;;;;;;5.80;1.97;;;9.90;99.90;;;;;;5011795;28;20461;-79
2022/08/07 03:52:36;;;;;;;4.07;1.93;;;9.90;99.90;;;;;;5012369;28;20178;-82
2022/08/07 03:55:02;;;;;;;3.60;2.40;;;9.90;99.90;;;;;;5015152;28;20257;-79
2022/08/07 03:57:30;;;;;;;4.20;2.17;;;10.00;99.90;;;;;;5015860;28;20425;-82
2022/08/07 03:59:56;;;;;;;5.53;3.40;;;10.10;99.90;;;;;;5015856;28;20417;-83
2022/08/07 04:02:23;;;;;;;5.10;3.10;;;10.20;99.90;;;;;;5015807;28;20479;-79
2022/08/07 04:04:49;;;;;;;5.70;2.40;;;10.30;99.90;;;;;;5015327;28;20173;-81
2022/08/07 04:07:16;;;;;;;4.53;2.83;;;10.40;99.90;;;;;;5015693;28;20440;-79
2022/08/07 04:09:43;;;;;;;3.80;2.50;;;10.30;99.90;;;;;;5015655;28;20901;-79
2022/08/07 04:12:08;;;;;;;5.97;2.60;;;10.40;99.90;;;;;;5015619;28;20819;-80
2022/08/07 04:14:34;;;;;;;3.87;2.40;;;10.50;99.90;;;;;;5015423;28;20421;-78
2022/08/07 04:17:00;;;;;;;5.03;3.03;;;10.50;99.90;;;;;;5015475;28;20216;-80
2022/08/07 04:19:26;;;;;;;3.30;2.70;;;10.50;99.90;;;;;;5015112;28;20553;-80
2022/08/07 04:21:52;;;;;;;5.67;3.13;;;10.50;99.90;;;;;;4997692;28;20210;-79
2022/08/07 04:24:24;;;;;;;4.80;2.57;;;10.50;99.90;;;;;;5015397;28;20191;-78
2022/08/07 04:26:50;;;;;;;4.87;2.80;;;10.60;99.90;;;;;;5015266;28;20415;-79
2022/08/07 04:29:15;;;;;;;5.73;2.80;;;10.60;99.90;;;;;;5015248;28;20933;-79
2022/08/07 04:31:41;;;;;;;5.63;2.77;;;10.60;99.90;;;;;;5015128;28;20192;-79
2022/08/07 04:34:07;;;;;;;5.73;4.03;;;10.70;99.90;;;;;;5014906;28;20177;-79
2022/08/07 04:36:33;;;;;;;5.70;3.90;;;10.60;99.90;;;;;;5015191;28;20177;-79
2022/08/07 04:39:00;;;;;;;3.83;2.77;;;10.70;99.90;;;;;;4997581;28;20462;-80
2022/08/07 04:41:26;;;;;;;4.87;1.83;;;10.70;99.90;;;;;;5014978;28;20427;-79
2022/08/07 04:43:54;;;;;;;4.10;2.97;;;10.80;99.90;;;;;;5014880;28;21099;-78
2022/08/07 04:46:45;;;;;;;4.40;3.10;;;10.90;99.90;;;;;;5015321;28;20178;-80
2022/08/07 04:49:37;;;;;;;4.33;2.00;;;10.90;99.90;;;;;;5014268;28;20417;-79
2022/08/07 04:52:35;;;;;;;5.97;3.27;;;10.80;99.90;;;;;;5014837;28;20419;-80
2022/08/07 04:55:36;;;;;;;4.47;3.43;;;10.90;99.90;;;;;;5014667;28;20417;-79
2022/08/07 04:58:36;;;;;;;6.87;3.93;;;11.00;99.90;;;;;;5013600;28;20948;-81
2022/08/07 05:01:20;;;;;;;5.47;3.23;;;11.00;99.90;;;;;;5014761;28;20946;-79
2022/08/07 05:04:09;;;;;;;5.83;2.87;;;11.00;99.90;;;;;;4996669;28;20539;-80
2022/08/07 05:06:43;;;;;;;4.27;2.27;;;11.10;99.90;;;;;;5014445;28;20505;-80
2022/08/07 05:09:41;;;;;;;4.20;2.80;;;11.20;99.90;;;;;;5014549;28;20422;-79
2022/08/07 05:12:12;;;;;;;4.90;3.17;;;11.30;99.90;;;;;;5000203;28;20450;-80
2022/08/07 05:14:46;;;;;;;5.80;3.50;;;11.30;99.90;;;;;;4996678;28;20425;-81
2022/08/07 05:17:17;;;;;;;7.20;3.27;;;11.30;99.90;;;;;;5014423;28;20421;-78
2022/08/07 05:19:54;;;;;;;5.20;3.27;;;11.40;99.90;;;;;;4996462;28;20523;-80
2022/08/07 05:22:24;;;;;;;3.47;2.60;;;11.40;99.90;;;;;;5012912;28;20469;-81
2022/08/07 05:24:50;;;;;;;5.07;2.67;;;11.50;99.90;;;;;;5014088;28;20452;-78
2022/08/07 05:27:18;;;;;;;5.47;2.93;;;11.50;99.90;;;;;;4996642;28;20484;-81
2022/08/07 05:29:46;;;;;;;5.43;4.07;;;11.60;99.90;;;;;;5014158;28;20462;-78
2022/08/07 05:32:13;;;;;;;9.23;3.27;;;11.80;99.90;;;;;;5014123;28;20411;-79
2022/08/07 05:34:40;;;;;;;6.63;3.30;;;12.00;99.90;;;;;;5013594;28;20456;-79
2022/08/07 05:37:12;;;;;;;2.90;2.37;;;12.10;99.90;;;;;;5013963;28;20512;-78
2022/08/07 05:39:42;;;;;;;6.80;3.43;;;12.30;99.90;;;;;;5013956;28;20506;-79
2022/08/07 05:42:08;;;;;;;7.93;4.13;;;12.50;99.90;;;;;;4996257;28;21001;-78
2022/08/07 05:44:36;;;;;;;5.60;2.73;;;12.80;99.90;;;;;;5013748;28;20413;-82
2022/08/07 05:47:02;;;;;;;5.67;3.57;;;13.30;99.90;;;;;;5013983;28;20412;-78
2022/08/07 05:49:28;;;;;;;5.97;4.03;;;14.00;99.90;;;;;;5013202;28;20423;-80
2022/08/07 05:51:54;;;;;;;5.47;3.37;;;14.50;99.90;;;;;;5013786;28;20803;-79
2022/08/07 05:54:19;;;;;;;8.17;4.00;;;14.80;99.90;;;;;;5013738;28;20406;-79
2022/08/07 05:56:46;;;;;;;6.30;3.43;;;15.00;99.90;;;;;;4995950;28;20178;-78
2022/08/07 05:59:18;;;;;;;6.40;3.40;;;15.20;99.90;;;;;;5013658;28;20519;-80
2022/08/07 06:01:45;;;;;;;5.90;3.57;;;15.70;99.90;;;;;;5013585;28;20466;-80
2022/08/07 06:04:18;;;;;;;4.03;1.80;;;16.20;99.90;;;;;;5013220;28;20450;-80
2022/08/07 06:06:44;;;;;;;4.73;2.87;;;16.40;17.00;;;;;;5013411;28;20495;-79
2022/08/07 06:09:09;;;;;;;4.17;2.10;;;16.50;1.00;;;;;;5013442;28;20453;-79
2022/08/07 06:11:41;;;;;;;5.27;2.40;;;16.80;1.00;;;;;;4995922;28;20177;-79
2022/08/07 06:14:07;;;;;;;5.13;2.57;;;17.10;1.00;;;;;;5013512;28;20217;-79
2022/08/07 06:16:34;;;;;;;3.00;2.00;;;17.30;1.00;;;;;;5012688;28;20415;-80
2022/08/07 06:19:00;;;;;;;3.93;2.60;;;17.90;99.90;;;;;;5012967;28;20181;-79
2022/08/07 06:21:26;;;;;;;3.43;2.57;;;18.00;99.90;;;;;;5013146;28;20466;-83
2022/08/07 06:23:52;;;;;;;2.33;2.07;;;19.20;99.90;;;;;;5013248;28;20909;-80
2022/08/07 06:26:21;;;;;;;4.17;2.97;;;19.70;99.90;;;;;;5013245;28;20442;-79
2022/08/07 06:28:55;;;;;;;5.10;3.00;;;20.50;99.90;;;;;;5013148;28;20185;-77
2022/08/07 06:31:21;;;;;;;5.47;3.00;;;21.30;99.90;;;;;;5012980;28;20911;-80
2022/08/07 06:33:47;;;;;;;3.17;1.70;;;21.50;99.90;;;;;;5012837;28;20422;-80
2022/08/07 06:36:13;;;;;;;4.87;2.60;;;22.30;99.90;;;;;;5012604;28;20455;-80
2022/08/07 06:38:40;;;;;;;5.07;2.17;;;22.50;99.90;;;;;;5013045;28;20449;-79
2022/08/07 06:41:10;;;;;;;2.80;2.03;;;22.80;99.90;;;;;;5013118;28;20638;-80
2022/08/07 06:43:40;;;;;;;3.03;1.70;;;23.10;99.90;;;;;;5012924;28;20834;-80
2022/08/07 06:46:07;;;;;;;3.60;3.13;;;23.00;97.70;;;;;;5011760;28;20814;-81
2022/08/07 06:48:32;;;;;;;3.23;2.03;;;22.90;96.30;;;;;;5012661;28;20671;-80
2022/08/07 06:51:00;;;;;;;4.40;2.10;;;22.60;98.60;;;;;;5012776;28;20462;-80
2022/08/07 06:53:27;;;;;;;3.20;2.57;;;22.90;99.90;;;;;;5013053;28;20195;-81
2022/08/07 06:55:54;;;;;;;3.27;1.90;;;23.20;99.90;;;;;;5011631;28;20445;-80
2022/08/07 06:58:21;;;;;;;2.93;2.43;;;23.80;71.10;;;;;;5013038;28;20454;-80
2022/08/07 07:00:47;;;;;;;3.30;2.80;;;24.50;89.50;;;;;;5012698;28;20421;-80
2022/08/07 07:03:14;;;;;;;3.27;1.97;;;24.10;31.90;;;;;;5012551;28;20482;-82
2022/08/07 07:05:40;;;;;;;3.13;1.53;;;24.10;30.20;;;;;;5012835;28;20414;-86
2022/08/07 07:08:07;;;;;;;2.50;1.80;;;24.10;28.50;;;;;;5012775;28;20433;-81
2022/08/07 07:10:34;;;;;;;2.07;1.20;;;25.00;47.80;;;;;;5012763;28;20509;-81
2022/08/07 07:13:26;;;;;;;2.50;1.00;;;24.70;17.20;;;;;;5012782;28;20783;-81
2022/08/07 07:15:59;;;;;;;2.43;1.47;;;24.80;23.10;;;;;;5012803;28;20425;-77
2022/08/07 07:18:30;;;;;;;2.90;1.93;;;24.90;10.80;;;;;;5012442;28;20410;-80
2022/08/07 07:21:00;;;;;;;3.00;1.70;;;24.90;8.20;;;;;;5012601;28;20429;-79
2022/08/07 07:23:29;;;;;;;3.37;2.13;;;25.20;13.00;;;;;;5012522;28;20824;-78
2022/08/07 07:26:01;;;;;;;2.07;1.10;;;25.50;27.30;;;;;;5012778;28;20417;-79
2022/08/07 07:28:38;;;;;;;1.80;0.83;;;26.00;5.70;;;;;;5015025;28;20476;-78
2022/08/07 07:31:08;;;;;;;2.13;1.33;;;25.50;1.00;;;;;;5016534;28;20413;-79
2022/08/07 07:33:35;;;;;;;2.10;1.07;;;25.40;1.00;;;;;;5015987;28;20429;-78
2022/08/07 07:36:03;;;;;;;2.13;1.10;;;25.30;1.00;;;;;;5016431;28;20420;-84
2022/08/07 07:38:30;;;;;;;1.97;1.10;;;24.80;1.00;;;;;;5016343;28;20426;-83
2022/08/07 07:40:59;;;;;;;1.77;1.10;;;25.20;2.50;;;;;;5016162;28;20412;-79
2022/08/07 07:43:26;;;;;;;1.83;0.70;;;25.10;1.00;;;;;;5016139;28;20501;-79
2022/08/07 07:45:59;;;;;;;1.63;0.77;;;25.20;1.00;;;;;;5016174;28;20401;-78
2022/08/07 07:48:25;;;;;;;2.70;1.07;;;25.80;1.00;;;;;;5015873;28;20424;-77
2022/08/07 07:50:54;;;;;;;2.30;1.20;;;25.90;1.00;;;;;;5015635;28;20460;-80
2022/08/07 07:53:22;;;;;;;2.27;1.03;;;25.80;1.00;;;;;;5015996;28;20779;-78
2022/08/07 07:55:48;;;;;;;1.50;0.73;;;26.00;1.00;;;;;;5016027;28;20769;-78
2022/08/07 07:58:15;;;;;;;1.80;1.07;;;26.20;1.00;;;;;;5015878;28;20450;-82
2022/08/07 08:00:42;;;;;;;1.90;1.03;;;25.70;1.00;;;;;;5015651;28;20418;-83
2022/08/07 08:03:12;;;;;;;1.53;0.90;;;26.70;1.00;;;;;;5015438;28;20477;-81
2022/08/07 08:05:41;;;;;;;1.70;1.30;;;26.80;1.00;;;;;;5015849;28;20509;-80
2022/08/07 08:08:09;;;;;;;1.83;0.70;;;26.70;1.00;;;;;;5014433;28;20460;-79
2022/08/07 08:10:36;;;;;;;1.60;0.90;;;26.50;1.00;;;;;;5015741;28;20434;-78
2022/08/07 08:13:02;;;;;;;3.20;0.93;;;26.20;1.00;;;;;;5015667;28;20421;-79
2022/08/07 08:15:32;;;;;;;1.70;0.80;;;26.40;1.00;;;;;;5015596;28;20473;-78
2022/08/07 08:17:59;;;;;;;2.83;0.90;;;26.50;1.00;;;;;;5015214;28;20778;-78
2022/08/07 08:20:26;;;;;;;1.37;0.97;;;27.20;1.00;;;;;;5015487;28;20407;-81
2022/08/07 08:28:27;;;;;;;1.80;1.10;;;27.30;1.00;;;;;;5015376;28;20839;-77
2022/08/07 08:30:56;;;;;;;2.00;1.20;;;27.50;1.00;;;;;;5014035;28;20434;-79
2022/08/07 08:33:25;;;;;;;1.43;1.10;;;27.30;1.00;;;;;;5014914;28;20414;-82
2022/08/07 08:35:54;;;;;;;1.33;0.80;;;27.80;1.00;;;;;;5015341;28;20509;-82
2022/08/07 08:38:22;;;;;;;1.43;0.90;;;28.00;1.00;;;;;;5015189;28;20456;-82
2022/08/07 08:41:04;;;;;;;1.20;0.60;;;27.90;1.00;;;;;;5014294;28;20425;-82
2022/08/07 08:43:29;;;;;;;1.47;0.73;;;27.50;1.00;;;;;;5014972;28;20592;-84
2022/08/07 08:46:05;;;;;;;2.00;0.67;;;27.40;1.00;;;;;;5013738;28;20600;-80
2022/08/07 08:48:52;;;;;;;1.37;0.67;;;28.00;1.00;;;;;;5014587;28;20174;-83
2022/08/07 08:51:38;;;;;;;2.30;1.27;;;25.60;1.00;;;;;;5014719;28;20798;-79
2022/08/07 08:54:09;;;;;;;1.70;0.50;;;26.90;1.00;;;;;;5014937;28;20512;-80
2022/08/07 08:56:47;;;;;;;1.53;0.93;;;28.00;1.00;;;;;;5014672;28;20402;-79
2022/08/07 08:59:15;;;;;;;1.50;0.73;;;28.00;1.00;;;;;;5014807;28;20425;-83
2022/08/07 09:02:24;;;;;;;1.13;0.60;;;28.40;1.00;;;;;;5014709;28;20418;-81
2022/08/07 09:05:15;;;;;;;1.00;0.90;;;28.40;1.00;;;;;;4973363;28;20472;-80
2022/08/07 09:07:48;;;;;;;1.47;0.77;;;28.20;1.00;;;;;;5012035;28;20437;-81
2022/08/07 09:10:28;;;;;;;1.10;0.90;;;28.40;1.00;;;;;;5015070;28;20816;-80
2022/08/07 09:13:21;;;;;;;0.90;0.60;;;28.00;1.00;;;;;;5014924;28;20405;-83
2022/08/07 09:16:03;;;;;;;1.50;0.90;;;27.80;1.00;;;;;;5027528;28;20410;-81
2022/08/07 09:18:53;;;;;;;0.87;0.70;;;28.10;1.00;;;;;;5014349;28;20799;-81
2022/08/07 09:21:35;;;;;;;2.70;0.77;;;28.30;1.00;;;;;;5014493;28;20464;-84
2022/08/07 09:24:25;;;;;;;1.33;0.83;;;28.50;1.00;;;;;;5014582;28;20506;-81
2022/08/07 09:27:18;;;;;;;0.90;0.80;;;28.80;1.00;;;;;;5014230;28;20417;-81
2022/08/07 09:29:59;;;;;;;1.30;1.07;;;29.20;1.00;;;;;;5014135;28;20414;-82
2022/08/07 09:32:55;;;;;;;1.27;0.63;;;29.40;1.00;;;;;;5012455;28;20414;-80
2022/08/07 09:35:43;;;;;;;0.77;0.40;;;29.40;1.00;;;;;;5014268;28;20818;-80
2022/08/07 09:38:12;;;;;;;3.20;1.20;;;29.40;1.00;;;;;;5014069;28;20422;-80
2022/08/07 09:41:01;;;;;;;2.17;1.47;;;29.60;1.00;;;;;;5013826;28;20517;-84
2022/08/07 09:43:46;;;;;;;1.43;0.83;;;29.70;1.00;;;;;;5006590;28;20485;-80
2022/08/07 09:46:36;;;;;;;1.60;1.10;;;27.30;1.00;;;;;;5012711;28;20426;-81
2022/08/07 09:49:39;;;;;;;1.40;0.80;;;26.20;1.00;;;;;;5012233;28;20552;-81
2022/08/07 09:52:25;;;;;;;1.97;1.07;;;24.10;1.00;;;;;;5011870;28;20509;-84
2022/08/07 09:55:36;;;;;;;1.57;1.00;;;23.40;1.00;;;;;;5013724;28;20425;-85
2022/08/07 09:58:28;;;;;;;4.13;1.10;;;24.40;1.00;;;;;;4972365;28;20431;-83
2022/08/07 10:01:31;;;;;;;1.83;0.70;;;24.90;1.00;;;;;;4972496;28;20419;-80
2022/08/07 10:04:27;;;;;;;2.53;1.33;;;25.40;1.00;;;;;;5011065;28;20430;-85
2022/08/07 10:07:20;;;;;;;1.60;1.40;;;25.80;1.00;;;;;;5013733;28;20836;-85
2022/08/07 10:10:08;;;;;;;1.70;0.90;;;27.50;1.00;;;;;;5013522;28;20414;-83
2022/08/07 10:13:06;;;;;;;1.33;0.60;;;28.80;1.00;;;;;;5012239;28;20407;-84
2022/08/07 10:15:53;;;;;;;1.87;0.87;;;29.30;1.00;;;;;;5013473;28;20418;-86
2022/08/07 10:18:51;;;;;;;0.60;0.40;;;29.20;1.00;;;;;;5013049;28;20454;-86
2022/08/07 10:21:41;;;;;;;1.90;0.87;;;29.10;1.00;;;;;;5013370;28;20420;-85
2022/08/07 10:24:19;;;;;;;3.17;1.37;;;28.10;1.00;;;;;;5013328;28;20472;-84
2022/08/07 10:27:23;;;;;;;1.23;0.80;;;28.20;1.00;;;;;;5011893;28;20421;-85
2022/08/07 10:30:05;;;;;;;1.23;0.70;;;29.50;1.00;;;;;;5005857;28;20424;-82
2022/08/07 10:32:40;;;;;;;2.10;0.70;;;29.70;1.00;;;;;;5012876;28;20501;-83
2022/08/07 10:35:37;;;;;;;1.53;0.63;;;27.90;1.00;;;;;;5013058;28;20410;-81
2022/08/07 10:38:19;;;;;;;1.97;0.90;;;28.40;1.00;;;;;;5013170;28;20785;-85
2022/08/07 10:41:09;;;;;;;1.77;0.93;;;27.70;1.00;;;;;;5013171;28;20433;-84
2022/08/07 10:43:47;;;;;;;3.27;1.40;;;25.80;1.00;;;;;;5012902;28;20481;-84
2022/08/07 10:46:19;;;;;;;1.30;0.93;;;24.40;1.00;;;;;;5013115;28;20445;-84
2022/08/07 10:48:54;;;;;;;2.00;0.90;;;24.70;1.00;;;;;;5011310;28;20485;-79
2022/08/07 10:51:41;;;;;;;1.87;1.10;;;26.50;1.00;;;;;;5012819;28;20503;-84
2022/08/07 10:54:19;;;;;;;1.07;0.90;;;27.60;1.00;;;;;;5013048;28;20783;-82
2022/08/07 10:57:22;;;;;;;1.87;1.10;;;25.00;1.00;;;;;;5011543;28;20428;-86
2022/08/07 11:00:00;;;;;;;1.60;1.07;;;24.00;1.00;;;;;;5011585;28;20414;-82
2022/08/07 11:02:40;;;;;;;1.90;1.00;;;26.30;1.00;;;;;;5013031;28;20660;-84
2022/08/07 11:05:43;;;;;;;1.17;0.60;;;27.70;1.00;;;;;;5016957;28;20832;-82
2022/08/07 11:08:21;;;;;;;1.97;1.27;;;28.00;1.00;;;;;;5016806;28;20429;-84
2022/08/07 11:10:56;;;;;;;2.23;0.83;;;27.50;1.00;;;;;;5016817;28;20444;-84
2022/08/07 11:13:33;;;;;;;2.20;1.00;;;25.50;1.00;;;;;;5016884;28;20420;-81
2022/08/07 11:16:10;;;;;;;2.00;1.30;;;26.10;1.00;;;;;;5016782;28;20413;-81
2022/08/07 11:18:53;;;;;;;1.67;0.90;;;26.90;1.00;;;;;;5016400;28;20907;-79
2022/08/07 11:21:53;;;;;;;2.00;0.90;;;28.20;1.00;;;;;;5016595;28;20426;-86
2022/08/07 11:24:32;;;;;;;1.47;1.00;;;27.20;1.00;;;;;;5016537;28;20953;-81
2022/08/07 11:27:23;;;;;;;2.03;0.93;;;26.20;1.00;;;;;;5016570;28;20413;-82
2022/08/07 11:29:59;;;;;;;1.70;0.90;;;24.60;1.00;;;;;;5011945;28;20421;-81
2022/08/07 11:33:00;;;;;;;1.90;1.40;;;24.70;1.00;;;;;;5016057;28;20479;-83
2022/08/07 11:35:35;;;;;;;1.80;1.20;;;24.30;1.00;;;;;;5016429;28;20741;-81
2022/08/07 11:38:13;;;;;;;1.97;1.00;;;24.80;1.00;;;;;;5016414;28;20425;-81
2022/08/07 11:40:48;;;;;;;1.43;1.20;;;25.10;1.00;;;;;;5016349;28;20484;-85
2022/08/07 11:43:48;;;;;;;1.93;0.93;;;26.40;1.00;;;;;;5016016;28;20478;-81
2022/08/07 11:46:29;;;;;;;1.00;0.67;;;27.60;1.00;;;;;;5016216;28;20512;-83
2022/08/07 11:49:09;;;;;;;2.27;0.80;;;28.30;1.00;;;;;;5015806;28;20402;-81
2022/08/07 11:52:09;;;;;;;2.30;1.07;;;29.00;1.00;;;;;;5015961;28;20461;-81
2022/08/07 11:54:41;;;;;;;1.70;0.97;;;29.00;1.00;;;;;;5016031;28;20425;-82
2022/08/07 11:57:27;;;;;;;1.80;1.10;;;27.00;1.00;;;;;;5016041;28;20445;-84
2022/08/07 12:00:09;;;;;;;1.53;1.00;;;26.10;1.00;;;;;;5014653;28;20556;-81
2022/08/07 12:02:47;;;;;;;1.83;1.30;;;25.00;1.00;;;;;;5015385;28;20469;-81
2022/08/07 12:05:58;;;;;;;1.70;1.33;;;24.50;1.00;;;;;;5015729;28;20445;-84
2022/08/07 12:08:36;;;;;;;1.80;0.83;;;23.90;1.00;;;;;;5008985;28;20956;-85
2022/08/07 12:11:04;;;;;;;2.87;1.40;;;23.60;1.00;;;;;;5015796;28;20417;-81
2022/08/07 12:13:50;;;;;;;1.93;1.03;;;24.80;1.00;;;;;;5013930;28;20422;-79
2022/08/07 12:16:20;;;;;;;3.00;1.37;;;26.60;1.00;;;;;;5015363;28;20946;-79
2022/08/07 12:18:54;;;;;;;1.67;0.90;;;26.90;1.00;;;;;;5015078;28;20834;-83
2022/08/07 12:21:46;;;;;;;1.73;1.00;;;25.90;1.00;;;;;;5015438;28;20425;-79
2022/08/07 12:24:31;;;;;;;1.57;1.20;;;27.30;1.00;;;;;;5015472;28;20551;-80
2022/08/07 12:27:02;;;;;;;1.80;0.70;;;26.70;1.00;;;;;;5015320;28;21101;-81
2022/08/07 12:29:39;;;;;;;2.40;1.23;;;25.80;1.00;;;;;;5015367;28;20771;-80
2022/08/07 12:32:19;;;;;;;1.63;0.70;;;25.00;1.00;;;;;;5015017;28;20501;-81
2022/08/07 12:34:46;;;;;;;1.50;1.00;;;24.70;1.00;;;;;;5015225;28;20437;-84
2022/08/07 12:37:14;;;;;;;1.80;0.83;;;24.50;1.00;;;;;;5015132;28;20414;-80
2022/08/07 12:39:43;;;;;;;2.60;1.43;;;24.40;1.00;;;;;;5013770;28;20465;-79
2022/08/07 12:42:10;;;;;;;1.80;1.10;;;24.20;1.00;;;;;;5013678;28;20488;-82
2022/08/07 12:44:38;;;;;;;1.40;1.20;;;24.10;1.00;;;;;;5014859;28;20417;-81
2022/08/07 12:47:31;;;;;;;1.80;1.40;;;24.00;1.00;;;;;;5014584;28;20414;-80
2022/08/07 12:50:28;;;;;;;1.07;0.67;;;25.80;1.00;;;;;;5014717;28;20457;-81
2022/08/07 12:53:02;;;;;;;1.10;0.60;;;27.20;1.00;;;;;;5014649;28;20425;-83
2022/08/07 12:55:40;;;;;;;1.60;1.10;;;27.70;1.00;;;;;;5014935;28;20441;-80
2022/08/07 12:58:08;;;;;;;1.90;0.93;;;27.20;1.00;;;;;;5014588;28;20425;-81
2022/08/07 13:01:15;;;;;;;1.47;0.90;;;26.30;1.00;;;;;;5014690;28;20414;-81
2022/08/07 13:03:52;;;;;;;1.27;1.03;;;25.30;1.00;;;;;;4996830;28;20469;-79
2022/08/07 13:06:43;;;;;;;1.07;0.50;;;24.90;1.00;;;;;;5014538;28;20410;-80
2022/08/07 13:09:40;;;;;;;1.50;0.80;;;24.80;1.00;;;;;;5014384;28;20430;-80
2022/08/07 13:12:20;;;;;;;2.07;1.00;;;24.80;1.00;;;;;;5014545;28;20910;-79
2022/08/07 13:15:17;;;;;;;1.83;0.90;;;24.60;1.00;;;;;;5014437;28;20504;-80
2022/08/07 13:17:51;;;;;;;1.50;0.80;;;25.40;1.00;;;;;;5013956;28;20452;-80
2022/08/07 13:20:28;;;;;;;1.57;0.97;;;26.40;1.00;;;;;;5013672;28;20418;-80
2022/08/07 13:23:02;;;;;;;1.27;0.97;;;26.70;1.00;;;;;;5014005;28;20505;-82
2022/08/07 13:25:53;;;;;;;1.10;0.80;;;27.00;1.00;;;;;;4996396;28;20453;-80
2022/08/07 13:28:27;;;;;;;1.13;0.80;;;27.10;1.00;;;;;;5013719;28;20444;-83
2022/08/07 13:31:16;;;;;;;3.70;0.87;;;27.20;1.00;;;;;;5014058;28;20418;-80